sensor_id;sensor_type;location;lat;lon;timestamp;temperature;humidity
13462;DHT22;6803;45.264;5.468;2022-07-23T00:01:22;24.60;90.60
13462;DHT22;6803;45.264;5.468;2022-07-23T00:03:54;24.60;90.90
13462;DHT22;6803;45.264;5.468;2022-07-23T00:06:25;24.60;91.00
13462;DHT22;6803;45.264;5.468;2022-07-23T00:08:56;24.50;91.30
13462;DHT22;6803;45.264;5.468;2022-07-23T00:11:27;24.40;91.70
13462;DHT22;6803;45.264;5.468;2022-07-23T00:13:58;24.50;92.00
13462;DHT22;6803;45.264;5.468;2022-07-23T00:16:28;24.50;92.00
13462;DHT22;6803;45.264;5.468;2022-07-23T00:18:59;24.50;92.20
13462;DHT22;6803;45.264;5.468;2022-07-23T00:21:32;24.50;92.50
13462;DHT22;6803;45.264;5.468;2022-07-23T00:24:04;24.60;92.80
13462;DHT22;6803;45.264;5.468;2022-07-23T00:26:35;24.60;93.00
13462;DHT22;6803;45.264;5.468;2022-07-23T00:29:06;24.60;93.20
13462;DHT22;6803;45.264;5.468;2022-07-23T00:31:36;24.70;93.50
13462;DHT22;6803;45.264;5.468;2022-07-23T00:34:07;24.80;93.50
13462;DHT22;6803;45.264;5.468;2022-07-23T00:36:38;24.80;93.70
13462;DHT22;6803;45.264;5.468;2022-07-23T00:39:08;24.80;93.70
13462;DHT22;6803;45.264;5.468;2022-07-23T00:41:40;24.70;93.90
13462;DHT22;6803;45.264;5.468;2022-07-23T00:44:22;24.70;94.00
13462;DHT22;6803;45.264;5.468;2022-07-23T00:46:55;24.60;94.50
13462;DHT22;6803;45.264;5.468;2022-07-23T00:49:28;24.50;94.80
13462;DHT22;6803;45.264;5.468;2022-07-23T00:52:01;24.50;95.00
13462;DHT22;6803;45.264;5.468;2022-07-23T00:54:33;24.40;95.90
13462;DHT22;6803;45.264;5.468;2022-07-23T00:57:04;24.40;96.10
13462;DHT22;6803;45.264;5.468;2022-07-23T00:59:35;24.30;96.40
13462;DHT22;6803;45.264;5.468;2022-07-23T01:02:06;24.30;96.90
13462;DHT22;6803;45.264;5.468;2022-07-23T01:04:37;24.30;97.20
13462;DHT22;6803;45.264;5.468;2022-07-23T01:07:08;24.20;97.60
13462;DHT22;6803;45.264;5.468;2022-07-23T01:09:39;24.20;98.10
13462;DHT22;6803;45.264;5.468;2022-07-23T01:12:10;24.00;98.60
13462;DHT22;6803;45.264;5.468;2022-07-23T01:14:41;24.10;99.00
13462;DHT22;6803;45.264;5.468;2022-07-23T01:17:12;24.10;99.80
13462;DHT22;6803;45.264;5.468;2022-07-23T01:19:42;24.10;99.90
13462;DHT22;6803;45.264;5.468;2022-07-23T01:22:13;24.10;99.90
13462;DHT22;6803;45.264;5.468;2022-07-23T01:24:45;24.10;99.90
13462;DHT22;6803;45.264;5.468;2022-07-23T01:27:16;24.00;99.90
13462;DHT22;6803;45.264;5.468;2022-07-23T01:29:48;24.10;99.90
13462;DHT22;6803;45.264;5.468;2022-07-23T01:32:19;24.20;99.90
13462;DHT22;6803;45.264;5.468;2022-07-23T01:34:50;24.30;99.90
13462;DHT22;6803;45.264;5.468;2022-07-23T01:37:20;24.10;99.90
13462;DHT22;6803;45.264;5.468;2022-07-23T01:39:52;24.00;99.90
13462;DHT22;6803;45.264;5.468;2022-07-23T01:42:24;23.80;99.90
13462;DHT22;6803;45.264;5.468;2022-07-23T01:44:54;23.50;99.90
13462;DHT22;6803;45.264;5.468;2022-07-23T01:47:26;23.30;99.90
13462;DHT22;6803;45.264;5.468;2022-07-23T01:49:57;23.30;99.90
13462;DHT22;6803;45.264;5.468;2022-07-23T01:52:28;23.20;99.90
13462;DHT22;6803;45.264;5.468;2022-07-23T01:54:58;23.30;99.90
13462;DHT22;6803;45.264;5.468;2022-07-23T01:57:29;23.30;99.90
13462;DHT22;6803;45.264;5.468;2022-07-23T02:00:00;23.40;99.90
13462;DHT22;6803;45.264;5.468;2022-07-23T02:02:32;23.60;99.90
13462;DHT22;6803;45.264;5.468;2022-07-23T02:05:03;23.80;99.90
13462;DHT22;6803;45.264;5.468;2022-07-23T02:07:33;23.90;99.90
13462;DHT22;6803;45.264;5.468;2022-07-23T02:10:07;24.00;99.90
13462;DHT22;6803;45.264;5.468;2022-07-23T02:12:38;24.10;99.90
13462;DHT22;6803;45.264;5.468;2022-07-23T02:15:09;24.20;99.90
13462;DHT22;6803;45.264;5.468;2022-07-23T02:17:42;24.10;99.90
13462;DHT22;6803;45.264;5.468;2022-07-23T02:20:12;24.10;99.90
13462;DHT22;6803;45.264;5.468;2022-07-23T02:22:44;24.20;99.90
13462;DHT22;6803;45.264;5.468;2022-07-23T02:25:15;24.20;99.90
13462;DHT22;6803;45.264;5.468;2022-07-23T02:27:46;24.30;99.90
13462;DHT22;6803;45.264;5.468;2022-07-23T02:30:16;24.50;99.90
13462;DHT22;6803;45.264;5.468;2022-07-23T02:32:47;24.40;99.90
13462;DHT22;6803;45.264;5.468;2022-07-23T02:35:18;24.30;99.90
13462;DHT22;6803;45.264;5.468;2022-07-23T02:37:48;24.10;99.90
13462;DHT22;6803;45.264;5.468;2022-07-23T02:40:19;24.20;99.90
13462;DHT22;6803;45.264;5.468;2022-07-23T02:42:50;24.10;99.90
13462;DHT22;6803;45.264;5.468;2022-07-23T02:45:21;24.10;99.90
13462;DHT22;6803;45.264;5.468;2022-07-23T02:47:51;24.10;99.90
13462;DHT22;6803;45.264;5.468;2022-07-23T02:50:22;24.10;99.90
13462;DHT22;6803;45.264;5.468;2022-07-23T02:52:54;23.80;99.90
13462;DHT22;6803;45.264;5.468;2022-07-23T02:55:25;23.80;99.90
13462;DHT22;6803;45.264;5.468;2022-07-23T02:57:55;23.80;99.90
13462;DHT22;6803;45.264;5.468;2022-07-23T03:00:26;23.80;99.90
13462;DHT22;6803;45.264;5.468;2022-07-23T03:02:57;23.70;99.90
13462;DHT22;6803;45.264;5.468;2022-07-23T03:05:28;24.00;99.90
13462;DHT22;6803;45.264;5.468;2022-07-23T03:07:58;24.00;99.90
13462;DHT22;6803;45.264;5.468;2022-07-23T03:10:29;24.10;99.90
13462;DHT22;6803;45.264;5.468;2022-07-23T03:13:00;24.00;99.90
13462;DHT22;6803;45.264;5.468;2022-07-23T03:15:30;23.60;99.90
13462;DHT22;6803;45.264;5.468;2022-07-23T03:18:01;23.50;99.90
13462;DHT22;6803;45.264;5.468;2022-07-23T03:20:32;23.30;99.90
13462;DHT22;6803;45.264;5.468;2022-07-23T03:23:02;23.20;99.90
13462;DHT22;6803;45.264;5.468;2022-07-23T03:25:33;23.10;99.90
13462;DHT22;6803;45.264;5.468;2022-07-23T03:28:04;23.10;99.90
13462;DHT22;6803;45.264;5.468;2022-07-23T03:30:35;23.10;99.90
13462;DHT22;6803;45.264;5.468;2022-07-23T03:33:06;23.10;99.90
13462;DHT22;6803;45.264;5.468;2022-07-23T03:35:36;23.00;99.90
13462;DHT22;6803;45.264;5.468;2022-07-23T03:38:07;22.90;99.90
13462;DHT22;6803;45.264;5.468;2022-07-23T03:40:38;22.90;99.90
13462;DHT22;6803;45.264;5.468;2022-07-23T03:43:09;22.90;99.90
13462;DHT22;6803;45.264;5.468;2022-07-23T03:45:40;22.90;99.90
13462;DHT22;6803;45.264;5.468;2022-07-23T03:48:10;23.10;99.90
13462;DHT22;6803;45.264;5.468;2022-07-23T03:50:41;23.30;99.90
13462;DHT22;6803;45.264;5.468;2022-07-23T03:53:12;23.40;99.90
13462;DHT22;6803;45.264;5.468;2022-07-23T03:55:42;23.50;99.90
13462;DHT22;6803;45.264;5.468;2022-07-23T03:58:13;23.30;99.90
13462;DHT22;6803;45.264;5.468;2022-07-23T04:00:44;23.20;99.90
13462;DHT22;6803;45.264;5.468;2022-07-23T04:03:16;23.10;99.90
13462;DHT22;6803;45.264;5.468;2022-07-23T04:05:47;23.30;99.90
13462;DHT22;6803;45.264;5.468;2022-07-23T04:08:17;23.40;99.90
13462;DHT22;6803;45.264;5.468;2022-07-23T04:10:48;23.50;99.90
13462;DHT22;6803;45.264;5.468;2022-07-23T04:13:18;23.60;99.90
13462;DHT22;6803;45.264;5.468;2022-07-23T04:15:49;23.60;99.90
13462;DHT22;6803;45.264;5.468;2022-07-23T04:18:20;23.70;99.90
13462;DHT22;6803;45.264;5.468;2022-07-23T04:20:53;23.60;99.90
13462;DHT22;6803;45.264;5.468;2022-07-23T04:23:24;23.50;99.90
13462;DHT22;6803;45.264;5.468;2022-07-23T04:25:55;23.50;99.90
13462;DHT22;6803;45.264;5.468;2022-07-23T04:31:02;23.40;99.90
13462;DHT22;6803;45.264;5.468;2022-07-23T04:33:33;23.50;99.90
13462;DHT22;6803;45.264;5.468;2022-07-23T04:36:05;23.40;99.90
13462;DHT22;6803;45.264;5.468;2022-07-23T04:38:36;23.30;99.90
13462;DHT22;6803;45.264;5.468;2022-07-23T04:41:07;23.30;99.90
13462;DHT22;6803;45.264;5.468;2022-07-23T04:43:38;23.20;99.90
13462;DHT22;6803;45.264;5.468;2022-07-23T04:46:09;23.20;99.90
13462;DHT22;6803;45.264;5.468;2022-07-23T04:48:41;23.10;99.90
13462;DHT22;6803;45.264;5.468;2022-07-23T04:51:11;23.10;99.90
13462;DHT22;6803;45.264;5.468;2022-07-23T04:53:42;23.10;99.90
13462;DHT22;6803;45.264;5.468;2022-07-23T04:56:14;22.80;99.90
13462;DHT22;6803;45.264;5.468;2022-07-23T04:58:44;22.40;99.90
13462;DHT22;6803;45.264;5.468;2022-07-23T05:01:15;22.20;99.90
13462;DHT22;6803;45.264;5.468;2022-07-23T05:03:46;21.90;99.90
13462;DHT22;6803;45.264;5.468;2022-07-23T05:06:18;21.40;99.90
13462;DHT22;6803;45.264;5.468;2022-07-23T05:08:48;21.50;99.90
13462;DHT22;6803;45.264;5.468;2022-07-23T05:11:19;21.30;99.90
13462;DHT22;6803;45.264;5.468;2022-07-23T05:13:51;21.30;99.90
13462;DHT22;6803;45.264;5.468;2022-07-23T05:16:22;21.10;99.90
13462;DHT22;6803;45.264;5.468;2022-07-23T05:19:12;21.00;99.90
13462;DHT22;6803;45.264;5.468;2022-07-23T05:21:43;20.80;99.90
13462;DHT22;6803;45.264;5.468;2022-07-23T05:24:14;20.70;99.90
13462;DHT22;6803;45.264;5.468;2022-07-23T05:26:44;20.60;99.90
13462;DHT22;6803;45.264;5.468;2022-07-23T05:29:15;20.50;99.90
13462;DHT22;6803;45.264;5.468;2022-07-23T05:31:46;20.60;99.90
13462;DHT22;6803;45.264;5.468;2022-07-23T05:34:17;20.40;99.90
13462;DHT22;6803;45.264;5.468;2022-07-23T05:36:48;20.30;99.90
13462;DHT22;6803;45.264;5.468;2022-07-23T05:39:19;20.30;99.90
13462;DHT22;6803;45.264;5.468;2022-07-23T05:41:50;20.70;99.90
13462;DHT22;6803;45.264;5.468;2022-07-23T05:44:21;20.70;99.90
13462;DHT22;6803;45.264;5.468;2022-07-23T05:46:51;20.70;99.90
13462;DHT22;6803;45.264;5.468;2022-07-23T05:49:22;20.60;99.90
13462;DHT22;6803;45.264;5.468;2022-07-23T05:51:53;20.60;99.90
13462;DHT22;6803;45.264;5.468;2022-07-23T05:54:24;20.60;99.90
13462;DHT22;6803;45.264;5.468;2022-07-23T05:56:55;20.70;99.90
13462;DHT22;6803;45.264;5.468;2022-07-23T05:59:26;20.70;99.90
13462;DHT22;6803;45.264;5.468;2022-07-23T06:01:57;20.70;99.90
13462;DHT22;6803;45.264;5.468;2022-07-23T06:04:28;20.80;99.90
13462;DHT22;6803;45.264;5.468;2022-07-23T06:06:59;20.90;99.90
13462;DHT22;6803;45.264;5.468;2022-07-23T06:09:29;20.90;99.90
13462;DHT22;6803;45.264;5.468;2022-07-23T06:12:01;21.10;99.90
13462;DHT22;6803;45.264;5.468;2022-07-23T06:14:32;21.30;99.90
13462;DHT22;6803;45.264;5.468;2022-07-23T06:17:03;21.30;99.90
13462;DHT22;6803;45.264;5.468;2022-07-23T06:19:34;21.20;99.90
13462;DHT22;6803;45.264;5.468;2022-07-23T06:22:05;21.20;99.90
13462;DHT22;6803;45.264;5.468;2022-07-23T06:24:36;21.20;99.90
13462;DHT22;6803;45.264;5.468;2022-07-23T06:27:07;21.20;99.90
13462;DHT22;6803;45.264;5.468;2022-07-23T06:29:39;21.40;99.90
13462;DHT22;6803;45.264;5.468;2022-07-23T06:32:10;21.50;99.90
13462;DHT22;6803;45.264;5.468;2022-07-23T06:34:42;21.80;99.90
13462;DHT22;6803;45.264;5.468;2022-07-23T06:37:15;22.10;99.90
13462;DHT22;6803;45.264;5.468;2022-07-23T06:39:49;22.40;99.90
13462;DHT22;6803;45.264;5.468;2022-07-23T06:42:20;22.50;99.90
13462;DHT22;6803;45.264;5.468;2022-07-23T06:44:51;22.60;99.90
13462;DHT22;6803;45.264;5.468;2022-07-23T06:47:23;22.90;99.90
13462;DHT22;6803;45.264;5.468;2022-07-23T06:49:54;23.20;99.90
13462;DHT22;6803;45.264;5.468;2022-07-23T06:55:06;23.10;99.90
13462;DHT22;6803;45.264;5.468;2022-07-23T06:57:37;23.20;99.90
13462;DHT22;6803;45.264;5.468;2022-07-23T07:00:14;23.20;99.90
13462;DHT22;6803;45.264;5.468;2022-07-23T07:02:46;23.40;99.90
13462;DHT22;6803;45.264;5.468;2022-07-23T07:05:17;23.80;99.90
13462;DHT22;6803;45.264;5.468;2022-07-23T07:07:48;24.10;99.90
13462;DHT22;6803;45.264;5.468;2022-07-23T07:10:20;24.20;99.90
13462;DHT22;6803;45.264;5.468;2022-07-23T07:15:29;24.40;99.90
13462;DHT22;6803;45.264;5.468;2022-07-23T07:18:00;24.70;99.90
13462;DHT22;6803;45.264;5.468;2022-07-23T07:20:31;24.60;99.90
13462;DHT22;6803;45.264;5.468;2022-07-23T07:23:04;24.60;99.90
13462;DHT22;6803;45.264;5.468;2022-07-23T07:25:35;24.80;99.90
13462;DHT22;6803;45.264;5.468;2022-07-23T07:28:06;25.00;99.90
13462;DHT22;6803;45.264;5.468;2022-07-23T07:30:37;25.00;99.90
13462;DHT22;6803;45.264;5.468;2022-07-23T07:33:08;25.20;99.90
13462;DHT22;6803;45.264;5.468;2022-07-23T07:35:39;25.40;99.90
13462;DHT22;6803;45.264;5.468;2022-07-23T07:38:10;25.40;99.90
13462;DHT22;6803;45.264;5.468;2022-07-23T07:40:40;25.40;99.90
13462;DHT22;6803;45.264;5.468;2022-07-23T07:43:13;25.70;99.90
13462;DHT22;6803;45.264;5.468;2022-07-23T07:45:46;25.80;99.90
13462;DHT22;6803;45.264;5.468;2022-07-23T07:48:17;25.80;99.90
13462;DHT22;6803;45.264;5.468;2022-07-23T07:50:49;25.90;99.90
13462;DHT22;6803;45.264;5.468;2022-07-23T07:53:20;26.10;99.90
13462;DHT22;6803;45.264;5.468;2022-07-23T07:55:53;26.00;99.90
13462;DHT22;6803;45.264;5.468;2022-07-23T07:58:25;26.00;99.90
13462;DHT22;6803;45.264;5.468;2022-07-23T08:00:59;25.60;99.90
13462;DHT22;6803;45.264;5.468;2022-07-23T08:03:32;25.40;99.90
13462;DHT22;6803;45.264;5.468;2022-07-23T08:06:08;25.50;99.90
13462;DHT22;6803;45.264;5.468;2022-07-23T08:08:39;25.30;99.90
13462;DHT22;6803;45.264;5.468;2022-07-23T08:11:11;25.60;99.90
13462;DHT22;6803;45.264;5.468;2022-07-23T08:13:44;25.40;99.90
13462;DHT22;6803;45.264;5.468;2022-07-23T08:16:15;25.50;99.90
13462;DHT22;6803;45.264;5.468;2022-07-23T08:18:47;25.40;99.90
13462;DHT22;6803;45.264;5.468;2022-07-23T08:21:19;25.60;99.90
13462;DHT22;6803;45.264;5.468;2022-07-23T08:23:49;25.70;99.90
13462;DHT22;6803;45.264;5.468;2022-07-23T08:26:22;25.80;99.90
13462;DHT22;6803;45.264;5.468;2022-07-23T08:28:55;25.60;99.90
13462;DHT22;6803;45.264;5.468;2022-07-23T08:31:28;25.40;99.90
13462;DHT22;6803;45.264;5.468;2022-07-23T08:33:59;25.90;99.90
13462;DHT22;6803;45.264;5.468;2022-07-23T08:36:32;26.20;99.90
13462;DHT22;6803;45.264;5.468;2022-07-23T08:39:03;26.00;99.90
13462;DHT22;6803;45.264;5.468;2022-07-23T08:41:35;26.30;99.90
13462;DHT22;6803;45.264;5.468;2022-07-23T08:44:07;26.40;99.90
13462;DHT22;6803;45.264;5.468;2022-07-23T08:46:40;26.40;99.90
13462;DHT22;6803;45.264;5.468;2022-07-23T08:49:13;26.70;99.90
13462;DHT22;6803;45.264;5.468;2022-07-23T08:51:45;26.50;99.90
13462;DHT22;6803;45.264;5.468;2022-07-23T08:54:17;26.50;99.90
13462;DHT22;6803;45.264;5.468;2022-07-23T08:56:48;26.40;99.90
13462;DHT22;6803;45.264;5.468;2022-07-23T08:59:19;26.20;99.90
13462;DHT22;6803;45.264;5.468;2022-07-23T09:01:50;26.60;99.90
13462;DHT22;6803;45.264;5.468;2022-07-23T09:04:21;26.40;99.90
13462;DHT22;6803;45.264;5.468;2022-07-23T09:06:54;26.10;99.90
13462;DHT22;6803;45.264;5.468;2022-07-23T09:09:26;26.50;99.90
13462;DHT22;6803;45.264;5.468;2022-07-23T09:12:18;26.70;99.90
13462;DHT22;6803;45.264;5.468;2022-07-23T09:14:49;27.10;99.90
13462;DHT22;6803;45.264;5.468;2022-07-23T09:17:40;27.50;99.90
13462;DHT22;6803;45.264;5.468;2022-07-23T09:20:14;27.70;99.90
13462;DHT22;6803;45.264;5.468;2022-07-23T09:22:48;27.60;99.90
13462;DHT22;6803;45.264;5.468;2022-07-23T09:25:20;27.60;99.90
13462;DHT22;6803;45.264;5.468;2022-07-23T09:27:54;27.70;99.90
13462;DHT22;6803;45.264;5.468;2022-07-23T09:30:27;27.90;99.90
13462;DHT22;6803;45.264;5.468;2022-07-23T09:33:09;28.10;99.90
13462;DHT22;6803;45.264;5.468;2022-07-23T09:35:52;28.10;99.90
13462;DHT22;6803;45.264;5.468;2022-07-23T09:38:26;28.40;99.90
13462;DHT22;6803;45.264;5.468;2022-07-23T09:41:08;28.30;99.90
13462;DHT22;6803;45.264;5.468;2022-07-23T09:43:40;28.20;99.90
13462;DHT22;6803;45.264;5.468;2022-07-23T09:46:22;28.10;99.90
13462;DHT22;6803;45.264;5.468;2022-07-23T09:48:55;28.20;99.90
13462;DHT22;6803;45.264;5.468;2022-07-23T09:51:26;28.50;99.90
13462;DHT22;6803;45.264;5.468;2022-07-23T09:54:05;28.60;99.90
13462;DHT22;6803;45.264;5.468;2022-07-23T09:56:37;29.10;99.90
13462;DHT22;6803;45.264;5.468;2022-07-23T09:59:10;28.60;99.90
13462;DHT22;6803;45.264;5.468;2022-07-23T10:01:41;28.20;99.90
13462;DHT22;6803;45.264;5.468;2022-07-23T10:04:12;28.40;99.90
13462;DHT22;6803;45.264;5.468;2022-07-23T10:06:45;28.20;99.90
13462;DHT22;6803;45.264;5.468;2022-07-23T10:09:17;28.40;99.90
13462;DHT22;6803;45.264;5.468;2022-07-23T10:11:51;28.60;99.90
13462;DHT22;6803;45.264;5.468;2022-07-23T10:14:23;28.60;99.90
13462;DHT22;6803;45.264;5.468;2022-07-23T10:16:54;28.40;99.90
13462;DHT22;6803;45.264;5.468;2022-07-23T10:19:25;28.50;99.90
13462;DHT22;6803;45.264;5.468;2022-07-23T10:22:00;28.70;99.90
13462;DHT22;6803;45.264;5.468;2022-07-23T10:24:55;28.40;99.90
13462;DHT22;6803;45.264;5.468;2022-07-23T10:27:58;28.40;99.90
13462;DHT22;6803;45.264;5.468;2022-07-23T10:30:28;28.80;99.90
13462;DHT22;6803;45.264;5.468;2022-07-23T10:36:01;28.70;99.90
13462;DHT22;6803;45.264;5.468;2022-07-23T10:38:34;29.00;99.90
13462;DHT22;6803;45.264;5.468;2022-07-23T10:41:06;28.70;99.90
13462;DHT22;6803;45.264;5.468;2022-07-23T10:43:36;29.00;99.90
13462;DHT22;6803;45.264;5.468;2022-07-23T10:46:24;29.10;99.90
13462;DHT22;6803;45.264;5.468;2022-07-23T10:49:26;29.00;99.90
13462;DHT22;6803;45.264;5.468;2022-07-23T10:58:23;30.30;99.90
13462;DHT22;6803;45.264;5.468;2022-07-23T11:00:54;29.70;99.90
13462;DHT22;6803;45.264;5.468;2022-07-23T11:03:36;29.30;99.90
13462;DHT22;6803;45.264;5.468;2022-07-23T11:06:08;29.20;99.90
13462;DHT22;6803;45.264;5.468;2022-07-23T11:08:38;29.70;99.90
13462;DHT22;6803;45.264;5.468;2022-07-23T11:11:11;30.00;99.90
13462;DHT22;6803;45.264;5.468;2022-07-23T11:13:49;30.40;99.90
13462;DHT22;6803;45.264;5.468;2022-07-23T11:16:24;30.20;99.90
13462;DHT22;6803;45.264;5.468;2022-07-23T11:19:09;30.10;99.90
13462;DHT22;6803;45.264;5.468;2022-07-23T11:21:50;30.50;99.90
13462;DHT22;6803;45.264;5.468;2022-07-23T11:24:23;30.10;99.90
13462;DHT22;6803;45.264;5.468;2022-07-23T11:27:04;30.40;99.90
13462;DHT22;6803;45.264;5.468;2022-07-23T11:29:40;30.90;99.90
13462;DHT22;6803;45.264;5.468;2022-07-23T11:32:36;31.80;99.90
13462;DHT22;6803;45.264;5.468;2022-07-23T11:35:26;32.30;99.90
13462;DHT22;6803;45.264;5.468;2022-07-23T11:38:06;31.40;99.90
13462;DHT22;6803;45.264;5.468;2022-07-23T11:40:37;30.60;99.90
13462;DHT22;6803;45.264;5.468;2022-07-23T11:43:09;29.90;99.90
13462;DHT22;6803;45.264;5.468;2022-07-23T11:45:41;30.30;99.90
13462;DHT22;6803;45.264;5.468;2022-07-23T11:48:19;30.50;99.90
13462;DHT22;6803;45.264;5.468;2022-07-23T11:51:09;30.40;99.90
13462;DHT22;6803;45.264;5.468;2022-07-23T11:53:40;30.90;99.90
13462;DHT22;6803;45.264;5.468;2022-07-23T11:56:11;31.00;99.90
13462;DHT22;6803;45.264;5.468;2022-07-23T11:58:53;31.30;99.90
13462;DHT22;6803;45.264;5.468;2022-07-23T12:01:28;31.70;99.90
13462;DHT22;6803;45.264;5.468;2022-07-23T12:03:59;31.90;99.90
13462;DHT22;6803;45.264;5.468;2022-07-23T12:06:31;32.00;99.90
13462;DHT22;6803;45.264;5.468;2022-07-23T12:09:05;31.60;99.90
13462;DHT22;6803;45.264;5.468;2022-07-23T12:11:37;31.60;99.90
13462;DHT22;6803;45.264;5.468;2022-07-23T12:14:10;32.00;99.90
13462;DHT22;6803;45.264;5.468;2022-07-23T12:16:42;31.60;99.90
13462;DHT22;6803;45.264;5.468;2022-07-23T12:21:50;31.10;99.90
13462;DHT22;6803;45.264;5.468;2022-07-23T12:24:21;31.20;99.90
13462;DHT22;6803;45.264;5.468;2022-07-23T12:27:09;31.50;99.90
13462;DHT22;6803;45.264;5.468;2022-07-23T12:29:41;31.50;99.90
13462;DHT22;6803;45.264;5.468;2022-07-23T12:32:20;31.60;99.90
13462;DHT22;6803;45.264;5.468;2022-07-23T12:35:03;32.10;99.90
13462;DHT22;6803;45.264;5.468;2022-07-23T12:37:37;31.70;99.90
13462;DHT22;6803;45.264;5.468;2022-07-23T12:40:27;31.60;99.90
13462;DHT22;6803;45.264;5.468;2022-07-23T12:43:01;31.20;99.90
13462;DHT22;6803;45.264;5.468;2022-07-23T12:48:37;32.40;99.90
13462;DHT22;6803;45.264;5.468;2022-07-23T12:51:09;32.20;99.90
13462;DHT22;6803;45.264;5.468;2022-07-23T12:53:44;32.70;99.10
13462;DHT22;6803;45.264;5.468;2022-07-23T12:56:18;31.70;99.90
13462;DHT22;6803;45.264;5.468;2022-07-23T12:58:51;31.70;99.90
13462;DHT22;6803;45.264;5.468;2022-07-23T13:01:28;32.00;99.60
13462;DHT22;6803;45.264;5.468;2022-07-23T13:04:06;31.90;99.80
13462;DHT22;6803;45.264;5.468;2022-07-23T13:06:41;31.60;99.80
13462;DHT22;6803;45.264;5.468;2022-07-23T13:09:15;32.60;99.70
13462;DHT22;6803;45.264;5.468;2022-07-23T13:11:48;33.40;98.30
13462;DHT22;6803;45.264;5.468;2022-07-23T13:14:20;33.70;98.60
13462;DHT22;6803;45.264;5.468;2022-07-23T13:16:52;33.40;97.30
13462;DHT22;6803;45.264;5.468;2022-07-23T13:19:25;32.90;98.00
13462;DHT22;6803;45.264;5.468;2022-07-23T13:21:57;31.80;98.90
13462;DHT22;6803;45.264;5.468;2022-07-23T13:24:29;31.10;99.50
13462;DHT22;6803;45.264;5.468;2022-07-23T13:27:00;30.90;99.90
13462;DHT22;6803;45.264;5.468;2022-07-23T13:29:31;31.10;99.90
13462;DHT22;6803;45.264;5.468;2022-07-23T13:32:04;31.20;99.90
13462;DHT22;6803;45.264;5.468;2022-07-23T13:34:37;31.30;99.90
13462;DHT22;6803;45.264;5.468;2022-07-23T13:37:10;32.70;99.60
13462;DHT22;6803;45.264;5.468;2022-07-23T13:39:42;33.10;99.30
13462;DHT22;6803;45.264;5.468;2022-07-23T13:42:15;32.20;99.80
13462;DHT22;6803;45.264;5.468;2022-07-23T13:44:46;33.10;99.10
13462;DHT22;6803;45.264;5.468;2022-07-23T13:47:17;32.60;99.20
13462;DHT22;6803;45.264;5.468;2022-07-23T13:49:48;32.70;98.50
13462;DHT22;6803;45.264;5.468;2022-07-23T13:52:19;31.80;99.20
13462;DHT22;6803;45.264;5.468;2022-07-23T13:54:50;32.00;99.70
13462;DHT22;6803;45.264;5.468;2022-07-23T13:57:22;31.90;99.70
13462;DHT22;6803;45.264;5.468;2022-07-23T13:59:54;32.00;99.90
13462;DHT22;6803;45.264;5.468;2022-07-23T14:02:26;32.00;99.40
13462;DHT22;6803;45.264;5.468;2022-07-23T14:04:57;32.20;99.50
13462;DHT22;6803;45.264;5.468;2022-07-23T14:07:29;32.10;99.80
13462;DHT22;6803;45.264;5.468;2022-07-23T14:09:59;32.00;99.90
13462;DHT22;6803;45.264;5.468;2022-07-23T14:12:31;32.00;99.00
13462;DHT22;6803;45.264;5.468;2022-07-23T14:15:06;32.50;99.20
13462;DHT22;6803;45.264;5.468;2022-07-23T14:17:41;33.10;98.80
13462;DHT22;6803;45.264;5.468;2022-07-23T14:20:13;33.30;97.70
13462;DHT22;6803;45.264;5.468;2022-07-23T14:22:48;33.10;97.50
13462;DHT22;6803;45.264;5.468;2022-07-23T14:25:19;32.90;97.90
13462;DHT22;6803;45.264;5.468;2022-07-23T14:27:50;32.30;97.50
13462;DHT22;6803;45.264;5.468;2022-07-23T14:30:21;32.00;98.70
13462;DHT22;6803;45.264;5.468;2022-07-23T14:32:55;32.20;98.20
13462;DHT22;6803;45.264;5.468;2022-07-23T14:35:26;32.00;98.30
13462;DHT22;6803;45.264;5.468;2022-07-23T14:40:33;31.60;98.30
13462;DHT22;6803;45.264;5.468;2022-07-23T14:43:05;31.20;99.00
13462;DHT22;6803;45.264;5.468;2022-07-23T14:45:38;31.40;99.90
13462;DHT22;6803;45.264;5.468;2022-07-23T14:48:08;31.20;99.00
13462;DHT22;6803;45.264;5.468;2022-07-23T14:50:39;30.80;99.30
13462;DHT22;6803;45.264;5.468;2022-07-23T14:53:11;30.50;99.90
13462;DHT22;6803;45.264;5.468;2022-07-23T14:55:41;31.20;99.60
13462;DHT22;6803;45.264;5.468;2022-07-23T14:58:13;31.80;99.20
13462;DHT22;6803;45.264;5.468;2022-07-23T15:00:43;31.70;98.30
13462;DHT22;6803;45.264;5.468;2022-07-23T15:03:15;32.20;98.70
13462;DHT22;6803;45.264;5.468;2022-07-23T15:05:46;32.30;97.00
13462;DHT22;6803;45.264;5.468;2022-07-23T15:08:18;33.40;97.60
13462;DHT22;6803;45.264;5.468;2022-07-23T15:10:50;33.70;96.20
13462;DHT22;6803;45.264;5.468;2022-07-23T15:16:01;33.00;96.20
13462;DHT22;6803;45.264;5.468;2022-07-23T15:18:33;33.50;95.30
13462;DHT22;6803;45.264;5.468;2022-07-23T15:21:07;34.20;96.20
13462;DHT22;6803;45.264;5.468;2022-07-23T15:23:39;34.90;93.90
13462;DHT22;6803;45.264;5.468;2022-07-23T15:26:10;33.90;95.60
13462;DHT22;6803;45.264;5.468;2022-07-23T15:28:41;34.10;94.50
13462;DHT22;6803;45.264;5.468;2022-07-23T15:31:12;34.30;94.90
13462;DHT22;6803;45.264;5.468;2022-07-23T15:33:42;34.50;94.00
13462;DHT22;6803;45.264;5.468;2022-07-23T15:36:16;35.00;93.30
13462;DHT22;6803;45.264;5.468;2022-07-23T15:38:49;35.10;93.30
13462;DHT22;6803;45.264;5.468;2022-07-23T15:41:23;34.30;93.40
13462;DHT22;6803;45.264;5.468;2022-07-23T15:43:54;34.40;93.90
13462;DHT22;6803;45.264;5.468;2022-07-23T15:46:25;34.70;93.30
13462;DHT22;6803;45.264;5.468;2022-07-23T15:48:56;33.30;94.10
13462;DHT22;6803;45.264;5.468;2022-07-23T15:51:27;33.10;95.10
13462;DHT22;6803;45.264;5.468;2022-07-23T15:53:59;33.60;95.00
13462;DHT22;6803;45.264;5.468;2022-07-23T15:56:31;34.20;94.20
13462;DHT22;6803;45.264;5.468;2022-07-23T15:59:04;33.30;94.80
13462;DHT22;6803;45.264;5.468;2022-07-23T16:01:36;33.40;94.80
13462;DHT22;6803;45.264;5.468;2022-07-23T16:04:08;33.90;94.40
13462;DHT22;6803;45.264;5.468;2022-07-23T16:06:39;34.20;94.80
13462;DHT22;6803;45.264;5.468;2022-07-23T16:09:12;34.00;94.60
13462;DHT22;6803;45.264;5.468;2022-07-23T16:11:46;33.40;94.70
13462;DHT22;6803;45.264;5.468;2022-07-23T16:14:18;34.20;94.40
13462;DHT22;6803;45.264;5.468;2022-07-23T16:16:49;34.30;93.90
13462;DHT22;6803;45.264;5.468;2022-07-23T16:19:20;33.30;95.10
13462;DHT22;6803;45.264;5.468;2022-07-23T16:21:51;33.30;94.60
13462;DHT22;6803;45.264;5.468;2022-07-23T16:24:21;33.30;95.00
13462;DHT22;6803;45.264;5.468;2022-07-23T16:26:52;33.40;94.30
13462;DHT22;6803;45.264;5.468;2022-07-23T16:29:23;33.30;94.70
13462;DHT22;6803;45.264;5.468;2022-07-23T16:31:56;33.00;94.80
13462;DHT22;6803;45.264;5.468;2022-07-23T16:34:26;32.80;94.80
13462;DHT22;6803;45.264;5.468;2022-07-23T16:36:57;32.50;95.40
13462;DHT22;6803;45.264;5.468;2022-07-23T16:39:29;32.00;96.00
13462;DHT22;6803;45.264;5.468;2022-07-23T16:42:00;31.30;96.60
13462;DHT22;6803;45.264;5.468;2022-07-23T16:44:32;30.70;97.00
13462;DHT22;6803;45.264;5.468;2022-07-23T16:47:04;30.70;97.40